Time;durP1;ratioP1;P1;durP2;ratioP2;P2;SDS_P1;SDS_P2;PMS_P1;PMS_P2;Temp;Humidity;BMP_temperature;BMP_pressure;BME280_temperature;BME280_humidity;BME280_pressure;Samples;Min_cycle;Max_cycle;Signal;HPM_P1;HPM_P2
2022/11/25 00:00:53;;;;;;;;;1.33;0.00;;;;;21.55;46.93;100784.28;5037553;28;45299;-76
2022/11/25 00:03:19;;;;;;;;;1.00;1.00;;;;;21.61;46.95;100795.00;5037390;28;45409;-76
2022/11/25 00:05:44;;;;;;;;;0.00;0.00;;;;;21.61;47.00;100802.09;5037393;28;45374;-76
2022/11/25 00:08:10;;;;;;;;;1.33;1.00;;;;;21.60;47.42;100811.03;5037398;28;45243;-76
2022/11/25 00:10:35;;;;;;;;;0.00;0.00;;;;;21.59;47.21;100812.88;5037363;28;45359;-76
2022/11/25 00:13:00;;;;;;;;;1.00;1.00;;;;;21.58;47.11;100807.75;5037285;28;45348;-76
2022/11/25 00:15:26;;;;;;;;;0.00;0.00;;;;;21.54;47.37;100804.66;5037377;28;45390;-76
2022/11/25 00:17:51;;;;;;;;;0.00;0.00;;;;;21.57;46.97;100806.94;5037424;28;45482;-77
2022/11/25 00:20:19;;;;;;;;;2.00;1.00;;;;;21.50;47.12;100801.53;5036727;28;46965;-77
2022/11/25 00:22:45;;;;;;;;;0.33;0.33;;;;;21.55;46.96;100813.41;5037177;28;46069;-76
2022/11/25 00:25:10;;;;;;;;;1.67;1.00;;;;;21.54;47.40;100811.78;5037202;28;45502;-76
2022/11/25 00:27:36;;;;;;;;;0.00;0.00;;;;;21.53;47.09;100818.88;5036971;28;45411;-77
2022/11/25 00:30:01;;;;;;;;;4.00;2.00;;;;;21.50;47.08;100817.41;5037076;28;45573;-75
2022/11/25 00:32:27;;;;;;;;;0.33;0.33;;;;;21.52;47.39;100819.88;5037087;28;45329;-76
2022/11/25 00:34:52;;;;;;;;;1.00;1.00;;;;;21.52;47.14;100823.34;5036664;28;45394;-76
2022/11/25 00:37:17;;;;;;;;;0.00;0.00;;;;;21.51;47.06;100827.00;5018742;28;45389;-76
2022/11/25 00:39:43;;;;;;;;;0.00;0.00;;;;;21.51;47.13;100839.41;5036892;28;45401;-77
2022/11/25 00:44:53;;;;;;;;;0.67;0.67;;;;;21.48;47.07;100831.81;5036941;28;45464;-76
2022/11/25 00:47:20;;;;;;;;;1.67;0.67;;;;;21.50;47.09;100833.28;5036277;28;45506;-76
2022/11/25 00:49:47;;;;;;;;;0.00;0.00;;;;;21.46;47.47;100831.19;5018679;28;46905;-76
2022/11/25 00:52:15;;;;;;;;;0.33;0.33;;;;;21.51;46.77;100834.97;5036609;28;45307;-77
2022/11/25 00:54:41;;;;;;;;;1.33;0.67;;;;;21.52;47.30;100835.75;5036470;28;45352;-77
2022/11/25 00:57:06;;;;;;;;;0.67;0.67;;;;;21.54;47.23;100840.88;5036370;28;45225;-77
2022/11/25 00:59:32;;;;;;;;;0.67;0.67;;;;;21.51;47.26;100829.66;5036135;28;46065;-77
2022/11/25 01:01:58;;;;;;;;;0.00;0.00;;;;;21.52;47.09;100835.75;5036140;28;46038;-76
2022/11/25 01:04:24;;;;;;;;;0.00;0.00;;;;;21.43;46.72;100824.41;5036747;28;45407;-75
2022/11/25 01:06:49;;;;;;;;;0.00;0.00;;;;;21.52;46.80;100843.69;5036287;28;45616;-77
2022/11/25 01:09:15;;;;;;;;;0.33;0.33;;;;;21.42;47.19;100830.69;5036226;28;47225;-77
2022/11/25 01:11:40;;;;;;;;;1.00;1.00;;;;;21.51;46.58;100845.53;5036492;28;45365;-76
2022/11/25 01:14:07;;;;;;;;;0.67;0.67;;;;;21.47;46.92;100840.75;5036531;28;45220;-76
2022/11/25 01:16:33;;;;;;;;;1.00;0.33;;;;;21.50;47.21;100848.34;5036172;28;45441;-76
2022/11/25 01:18:59;;;;;;;;;0.67;0.67;;;;;21.45;46.82;100848.88;5036134;28;45446;-76
2022/11/25 01:21:28;;;;;;;;;1.67;0.33;;;;;21.45;47.12;100854.19;5018318;28;45452;-77
2022/11/25 01:23:54;;;;;;;;;0.67;0.67;;;;;21.31;46.99;100841.72;5036258;28;45351;-76
2022/11/25 01:26:22;;;;;;;;;1.00;1.00;;;;;21.48;46.75;100871.53;5036055;28;45438;-76
2022/11/25 01:28:51;;;;;;;;;0.33;0.33;;;;;21.48;47.15;100876.81;5035991;28;47215;-77
2022/11/25 01:31:19;;;;;;;;;2.00;2.00;;;;;21.37;46.81;100860.34;5035669;28;45355;-74
2022/11/25 01:33:47;;;;;;;;;1.00;1.00;;;;;21.46;46.67;100874.38;5036182;28;45374;-77
2022/11/25 01:36:14;;;;;;;;;3.00;0.00;;;;;21.37;46.96;100867.47;5036179;28;45410;-74
2022/11/25 01:38:40;;;;;;;;;0.00;0.00;;;;;21.46;46.87;100892.91;5035681;28;47373;-75
2022/11/25 01:41:08;;;;;;;;;1.67;1.67;;;;;21.46;47.19;100892.06;5035899;28;45449;-74
2022/11/25 01:43:34;;;;;;;;;0.00;0.00;;;;;21.45;47.12;100898.34;5036022;28;45371;-75
2022/11/25 01:46:23;;;;;;;;;0.00;0.00;;;;;21.45;47.04;100898.34;5035482;28;45494;-74
2022/11/25 01:48:55;;;;;;;;;0.00;0.00;;;;;21.44;46.98;100904.66;5035789;28;45339;-76
2022/11/25 01:51:27;;;;;;;;;0.00;0.00;;;;;21.45;47.02;100911.59;5035842;28;45419;-76
2022/11/25 01:53:58;;;;;;;;;0.00;0.00;;;;;21.44;47.13;100913.44;5014563;28;45479;-76
2022/11/25 01:56:25;;;;;;;;;0.00;0.00;;;;;21.44;46.84;100915.25;5015983;28;45547;-76
2022/11/25 01:58:51;;;;;;;;;1.33;1.33;;;;;21.42;46.71;100911.94;5035359;28;46404;-76
2022/11/25 02:01:16;;;;;;;;;0.00;0.00;;;;;21.35;47.16;100906.50;5035113;28;45454;-75
2022/11/25 02:03:47;;;;;;;;;0.33;0.33;;;;;21.34;47.13;100905.69;5035854;28;45302;-76
2022/11/25 02:06:17;;;;;;;;;0.33;0.33;;;;;;;;5035913;28;45414;-76
2022/11/25 02:08:47;;;;;;;;;0.00;0.00;;;;;21.40;47.08;100926.16;5035471;28;46358;-76
2022/11/25 02:11:14;;;;;;;;;1.00;1.00;;;;;21.36;47.08;100916.94;5035480;28;46045;-76
2022/11/25 02:13:39;;;;;;;;;1.00;0.50;;;;;21.40;46.66;100922.69;5035570;28;45326;-76
2022/11/25 02:16:05;;;;;;;;;0.00;0.00;;;;;21.40;47.11;100926.16;5035180;28;45388;-77
2022/11/25 02:18:30;;;;;;;;;1.00;1.00;;;;;21.27;46.88;100916.16;5035408;28;46974;-76
2022/11/25 02:20:56;;;;;;;;;0.00;0.00;;;;;21.40;46.85;100928.81;5035415;28;45438;-76
2022/11/25 02:23:27;;;;;;;;;0.67;0.67;;;;;21.42;46.68;100931.28;5035545;28;45403;-77
2022/11/25 02:25:53;;;;;;;;;0.00;0.00;;;;;21.42;46.56;100933.13;5035597;28;45422;-76
2022/11/25 02:28:25;;;;;;;;;0.67;0.67;;;;;21.42;46.93;100936.56;5035124;28;47190;-76
2022/11/25 02:30:50;;;;;;;;;1.00;1.00;;;;;;;;5035033;28;45287;-77
2022/11/25 02:33:16;;;;;;;;;0.00;0.00;;;;;21.42;46.60;100943.72;5034486;28;45370;-76
2022/11/25 02:35:51;;;;;;;;;0.00;0.00;;;;;21.33;46.91;100935.81;5035417;28;45275;-74
2022/11/25 02:38:41;;;;;;;;;2.33;1.33;;;;;21.39;46.69;100953.63;5035012;28;46059;-76
2022/11/25 02:41:13;;;;;;;;;1.67;0.33;;;;;21.44;46.91;100969.00;5020927;28;45464;-76
2022/11/25 02:43:40;;;;;;;;;1.67;1.67;;;;;21.39;46.94;100963.41;5034995;28;45249;-76
2022/11/25 02:46:08;;;;;;;;;1.00;0.00;;;;;21.44;46.68;100971.66;5035154;28;45319;-76
2022/11/25 02:48:37;;;;;;;;;1.33;0.00;;;;;21.44;46.51;100973.47;5034804;28;46226;-76
2022/11/25 02:51:04;;;;;;;;;0.00;0.00;;;;;21.39;46.50;100969.50;5034839;28;45407;-77
2022/11/25 02:53:29;;;;;;;;;0.00;0.00;;;;;21.43;46.55;100977.94;5016981;28;45544;-76
2022/11/25 02:55:54;;;;;;;;;2.00;2.00;;;;;21.40;46.92;100979.09;5035018;28;45476;-76
2022/11/25 02:58:20;;;;;;;;;0.67;0.33;;;;;21.33;46.42;100966.75;5033465;28;45336;-75
2022/11/25 03:00:46;;;;;;;;;0.67;0.00;;;;;21.40;46.86;100987.06;5017159;28;45383;-76
2022/11/25 03:03:12;;;;;;;;;3.00;0.33;;;;;21.31;46.89;100979.31;5035095;28;45399;-76
2022/11/25 03:05:37;;;;;;;;;1.00;1.00;;;;;21.39;46.72;100998.63;5035151;28;45450;-75
2022/11/25 03:08:04;;;;;;;;;0.67;0.67;;;;;21.28;47.12;100985.78;5038096;28;46204;-75
2022/11/25 03:10:30;;;;;;;;;0.00;0.00;;;;;21.39;46.56;101005.75;5038407;28;45394;-75
2022/11/25 03:12:55;;;;;;;;;0.33;0.33;;;;;21.38;46.52;101001.44;5037937;28;45240;-75
2022/11/25 03:15:21;;;;;;;;;1.00;1.00;;;;;21.02;46.53;100949.84;5038243;28;45361;-76
2022/11/25 03:17:47;;;;;;;;;1.00;1.00;;;;;21.37;46.71;101010.38;5038049;28;46760;-75
2022/11/25 03:20:13;;;;;;;;;0.00;0.00;;;;;21.37;46.98;101011.22;5038214;28;45761;-76
2022/11/25 03:22:40;;;;;;;;;1.00;0.00;;;;;21.33;46.91;101006.44;5038357;28;45256;-76
2022/11/25 03:25:05;;;;;;;;;0.00;0.00;;;;;21.37;46.46;101015.66;5038024;28;45327;-76
2022/11/25 03:27:33;;;;;;;;;1.00;1.00;;;;;21.37;47.03;101015.66;5037349;28;46350;-75
2022/11/25 03:29:58;;;;;;;;;1.33;1.33;;;;;21.28;46.40;101010.44;5038028;28;45485;-76
2022/11/25 03:32:24;;;;;;;;;0.00;0.00;;;;;21.34;46.57;101027.44;5038027;28;45296;-75
2022/11/25 03:34:49;;;;;;;;;1.33;1.00;;;;;21.33;47.09;101032.91;5038135;28;45363;-75
2022/11/25 03:37:14;;;;;;;;;1.00;1.00;;;;;21.35;46.89;101037.03;5037716;28;46074;-76
2022/11/25 03:39:40;;;;;;;;;3.00;1.00;;;;;21.22;46.96;101018.22;5037856;28;45248;-76
2022/11/25 03:42:05;;;;;;;;;2.00;1.00;;;;;21.33;46.47;101035.56;5037585;28;45225;-75
2022/11/25 03:44:30;;;;;;;;;2.00;1.00;;;;;21.36;46.97;101045.81;5038024;28;45223;-76
2022/11/25 03:46:55;;;;;;;;;0.00;0.00;;;;;21.31;46.78;101046.31;5037511;28;45271;-77
2022/11/25 03:49:21;;;;;;;;;0.67;0.33;;;;;21.29;46.73;101045.63;5037747;28;45238;-75
2022/11/25 03:51:47;;;;;;;;;0.00;0.00;;;;;21.34;46.78;101055.75;5037725;28;45354;-75
2022/11/25 03:54:12;;;;;;;;;2.67;1.67;;;;;21.34;46.77;101061.84;5037605;28;45521;-75
2022/11/25 03:56:38;;;;;;;;;1.33;0.00;;;;;21.31;46.69;101059.56;5036866;28;46102;-76
2022/11/25 03:59:03;;;;;;;;;2.00;1.00;;;;;21.31;46.99;101061.38;5037332;28;45404;-75
2022/11/25 04:01:28;;;;;;;;;2.00;0.67;;;;;21.21;46.86;101040.41;5037739;28;45880;-75
2022/11/25 04:03:54;;;;;;;;;0.67;0.33;;;;;21.33;46.81;101068.16;5037659;28;45350;-76
2022/11/25 04:06:20;;;;;;;;;2.00;0.00;;;;;21.25;46.56;101061.06;5037685;28;45461;-77
2022/11/25 04:08:46;;;;;;;;;0.00;0.00;;;;;21.31;46.79;101072.78;5037286;28;45470;-76
2022/11/25 04:11:11;;;;;;;;;1.00;0.00;;;;;21.35;46.33;101079.38;5037097;28;45331;-76
2022/11/25 04:13:37;;;;;;;;;1.00;1.00;;;;;21.29;46.54;101070.28;5037443;28;45405;-75
2022/11/25 04:16:02;;;;;;;;;2.00;0.00;;;;;21.34;46.65;101079.56;5037137;28;46143;-75
2022/11/25 04:18:27;;;;;;;;;1.00;1.00;;;;;21.32;46.37;101073.59;5036612;28;45411;-75
2022/11/25 04:20:53;;;;;;;;;0.67;0.00;;;;;21.36;46.34;101085.50;5019543;28;45382;-75
2022/11/25 04:23:18;;;;;;;;;0.00;0.00;;;;;21.28;46.53;101081.88;5037233;28;45398;-75
2022/11/25 04:25:43;;;;;;;;;1.33;1.00;;;;;21.34;46.30;101085.66;5036808;28;46250;-75
2022/11/25 04:28:09;;;;;;;;;0.33;0.33;;;;;21.35;46.56;101095.25;5036909;28;45390;-75
2022/11/25 04:30:35;;;;;;;;;1.00;1.00;;;;;21.26;46.25;101093.63;5037286;28;45359;-75
2022/11/25 04:33:01;;;;;;;;;1.67;1.00;;;;;21.22;46.31;101095.78;5037218;28;45506;-75
2022/11/25 04:35:26;;;;;;;;;0.00;0.00;;;;;21.34;46.74;101116.63;5036817;28;46831;-75
2022/11/25 04:37:51;;;;;;;;;2.33;1.00;;;;;21.33;46.14;101125.53;5036929;28;45323;-76
2022/11/25 04:40:17;;;;;;;;;2.00;1.00;;;;;21.27;46.49;101113.78;5036665;28;45376;-75
2022/11/25 04:42:42;;;;;;;;;0.00;0.00;;;;;21.33;46.56;101120.25;5037207;28;45570;-75
2022/11/25 04:45:14;;;;;;;;;0.00;0.00;;;;;21.35;46.56;101128.84;5036807;28;46031;-76
2022/11/25 04:47:41;;;;;;;;;1.00;1.00;;;;;21.25;46.37;101106.03;5036776;28;45319;-75
2022/11/25 04:50:11;;;;;;;;;0.00;0.00;;;;;21.23;46.65;101110.69;5036847;28;45419;-75
2022/11/25 04:52:36;;;;;;;;;0.00;0.00;;;;;21.17;46.75;101108.69;5036777;28;45292;-76
2022/11/25 04:55:02;;;;;;;;;0.00;0.00;;;;;21.29;46.34;101125.88;5035965;28;46161;-76
2022/11/25 04:57:27;;;;;;;;;1.00;1.00;;;;;21.31;46.30;101144.25;5036340;28;45319;-75
2022/11/25 04:59:52;;;;;;;;;1.00;1.00;;;;;20.99;46.40;101101.75;5036581;28;45461;-75
2022/11/25 05:02:23;;;;;;;;;1.00;1.00;;;;;21.25;46.49;101145.72;5036538;28;45485;-75
2022/11/25 05:04:50;;;;;;;;;1.00;1.00;;;;;21.25;46.37;101151.03;5036272;28;46251;-75
2022/11/25 05:07:18;;;;;;;;;1.00;1.00;;;;;21.22;46.69;101150.53;5036136;28;45377;-76
2022/11/25 05:09:44;;;;;;;;;2.00;0.33;;;;;21.22;46.44;101161.09;5036175;28;45279;-75
2022/11/25 05:12:16;;;;;;;;;0.00;0.00;;;;;21.27;46.21;101172.84;5036464;28;45272;-75
2022/11/25 05:14:41;;;;;;;;;3.00;1.00;;;;;21.17;46.42;101158.97;5036163;28;46040;-76
2022/11/25 05:17:15;;;;;;;;;0.00;0.00;;;;;21.29;46.38;101183.25;5036227;28;45411;-76
2022/11/25 05:19:40;;;;;;;;;0.33;0.33;;;;;21.20;46.32;101171.03;5036470;28;45401;-76
2022/11/25 05:22:09;;;;;;;;;1.00;1.00;;;;;21.23;46.59;101183.94;5036212;28;45321;-76
2022/11/25 05:24:35;;;;;;;;;2.00;1.00;;;;;21.00;46.51;101145.69;5035819;28;45209;-75
2022/11/25 05:27:00;;;;;;;;;1.00;1.00;;;;;21.29;46.65;101199.13;5035914;28;45437;-75
2022/11/25 05:29:26;;;;;;;;;2.33;0.67;;;;;21.25;46.38;101198.66;5035322;28;45238;-76
2022/11/25 05:31:51;;;;;;;;;0.33;0.33;;;;;21.16;46.16;101194.34;5018240;28;45320;-75
2022/11/25 05:34:16;;;;;;;;;3.33;0.33;;;;;21.17;46.31;101196.00;5035389;28;45359;-75
2022/11/25 05:36:42;;;;;;;;;4.00;2.00;;;;;21.29;46.29;101212.38;5036088;28;45622;-76
2022/11/25 05:39:07;;;;;;;;;1.00;1.00;;;;;21.29;46.34;101215.84;5035788;28;45396;-75
2022/11/25 05:41:32;;;;;;;;;2.00;1.00;;;;;21.29;46.65;101223.78;5036146;28;45478;-76
2022/11/25 05:43:58;;;;;;;;;0.00;0.00;;;;;21.29;46.63;101221.13;5035882;28;45610;-75
2022/11/25 05:46:23;;;;;;;;;2.67;1.00;;;;;21.26;46.34;101220.66;5035917;28;45441;-75
2022/11/25 05:48:53;;;;;;;;;0.00;0.00;;;;;21.29;46.69;101223.78;5035887;28;45416;-76
2022/11/25 05:51:18;;;;;;;;;0.67;0.67;;;;;21.29;46.50;101228.25;5034678;28;45371;-76
2022/11/25 05:53:43;;;;;;;;;1.00;0.00;;;;;21.27;46.38;101230.25;5035163;28;47190;-76
2022/11/25 05:56:09;;;;;;;;;1.00;1.00;;;;;21.30;46.24;101227.25;5035651;28;45363;-75
2022/11/25 05:58:34;;;;;;;;;0.00;0.00;;;;;21.28;46.31;101230.09;5035561;28;45565;-76
2022/11/25 06:00:59;;;;;;;;;2.00;1.00;;;;;20.97;46.17;101180.44;5035930;28;45300;-75
2022/11/25 06:03:26;;;;;;;;;2.00;0.00;;;;;21.29;46.32;101231.72;5035485;28;45993;-75
2022/11/25 06:05:51;;;;;;;;;0.00;0.00;;;;;21.29;46.58;101238.84;5035706;28;45339;-76
2022/11/25 06:08:17;;;;;;;;;1.00;1.00;;;;;21.29;46.30;101242.31;5035153;28;45446;-76
2022/11/25 06:10:42;;;;;;;;;0.00;0.00;;;;;21.29;46.46;101247.59;5035768;28;45494;-76
2022/11/25 06:13:08;;;;;;;;;0.00;0.00;;;;;21.30;46.21;101251.09;5035494;28;46137;-75
2022/11/25 06:15:33;;;;;;;;;1.00;1.00;;;;;21.28;46.64;101245.97;5035222;28;45261;-77
2022/11/25 06:17:59;;;;;;;;;0.33;0.33;;;;;21.26;46.35;101244.47;5035536;28;45346;-75
2022/11/25 06:20:25;;;;;;;;;0.00;0.00;;;;;21.16;46.55;101224.28;5035702;28;45305;-74
2022/11/25 06:22:51;;;;;;;;;1.67;1.00;;;;;21.24;46.35;101238.50;5034998;28;46266;-75
2022/11/25 06:25:16;;;;;;;;;1.33;1.00;;;;;21.26;46.70;101247.13;5035279;28;45386;-76
2022/11/25 06:27:41;;;;;;;;;1.00;1.00;;;;;21.05;46.49;101222.78;5035436;28;45240;-79
2022/11/25 06:30:07;;;;;;;;;0.67;0.67;;;;;21.28;46.43;101258.38;5035404;28;45428;-75
2022/11/25 06:32:33;;;;;;;;;0.33;0.33;;;;;21.28;46.22;101267.13;5035529;28;45985;-76
2022/11/25 06:34:58;;;;;;;;;1.00;1.00;;;;;21.25;46.63;101264.81;5035191;28;45327;-78
2022/11/25 06:37:23;;;;;;;;;1.00;0.00;;;;;21.28;46.10;101272.44;5034937;28;45323;-77
2022/11/25 06:39:49;;;;;;;;;0.33;0.33;;;;;21.29;46.70;101270.59;5035378;28;45292;-76
2022/11/25 06:42:14;;;;;;;;;0.33;0.33;;;;;21.28;46.46;101288.31;5037247;28;53094;-76
2022/11/25 06:44:39;;;;;;;;;4.33;0.33;;;;;21.16;46.71;101261.31;5038756;28;45370;-75
2022/11/25 06:47:05;;;;;;;;;2.00;1.00;;;;;21.24;47.04;101286.97;5038487;28;45406;-74
2022/11/25 06:49:30;;;;;;;;;4.00;0.00;;;;;21.29;46.77;101303.19;5038634;28;45539;-73
2022/11/25 06:51:55;;;;;;;;;1.00;1.00;;;;;21.26;47.11;101294.75;5031486;28;46135;-72
2022/11/25 06:54:20;;;;;;;;;1.00;1.00;;;;;21.28;46.54;101296.25;5011243;28;45424;-73
2022/11/25 06:56:50;;;;;;;;;0.00;0.00;;;;;21.20;46.86;101290.94;5022544;28;45442;-73
2022/11/25 06:59:17;;;;;;;;;0.67;0.67;;;;;21.25;46.81;101303.69;5038260;28;45443;-73
2022/11/25 07:01:42;;;;;;;;;1.00;1.00;;;;;21.24;46.93;101302.84;5038131;28;46762;-73
2022/11/25 07:04:08;;;;;;;;;0.00;0.00;;;;;21.22;46.86;101298.72;5038176;28;45424;-73
2022/11/25 07:06:33;;;;;;;;;2.67;1.00;;;;;21.17;46.78;101292.09;5038094;28;45401;-72
2022/11/25 07:08:59;;;;;;;;;0.67;0.67;;;;;21.12;47.45;101289.13;5038403;28;45546;-72
2022/11/25 07:11:27;;;;;;;;;0.00;0.00;;;;;21.23;47.15;101308.31;5038187;28;46179;-72
2022/11/25 07:13:59;;;;;;;;;3.00;1.33;;;;;21.15;47.27;101304.69;5037979;28;45280;-73
2022/11/25 07:16:26;;;;;;;;;2.00;1.00;;;;;21.22;47.28;101320.72;5038157;28;45322;-72
2022/11/25 07:18:51;;;;;;;;;3.00;1.00;;;;;21.18;47.25;101316.75;5037673;28;45539;-72
2022/11/25 07:21:22;;;;;;;;;0.67;0.33;;;;;21.27;47.25;101338.75;5037957;28;45675;-73
2022/11/25 07:23:49;;;;;;;;;3.00;0.33;;;;;21.26;47.20;101343.19;5036132;28;45438;-72
2022/11/25 07:26:26;;;;;;;;;1.00;1.00;;;;;21.28;47.00;101345.72;5036406;28;45493;-74
2022/11/25 07:28:53;;;;;;;;;1.00;1.00;;;;;21.32;47.14;101352.31;5034684;28;45371;-74
2022/11/25 07:31:24;;;;;;;;;2.33;0.33;;;;;21.36;47.13;101364.25;5035975;28;46098;-78
2022/11/25 07:33:52;;;;;;;;;0.00;0.00;;;;;21.35;47.19;101356.47;5035447;28;45464;-74
2022/11/25 07:36:17;;;;;;;;;1.33;1.00;;;;;21.36;47.12;101369.53;5032924;28;45677;-75
2022/11/25 07:38:42;;;;;;;;;0.67;0.67;;;;;21.31;47.10;101369.22;5034967;28;45579;-75
2022/11/25 07:41:11;;;;;;;;;1.33;1.00;;;;;21.13;47.04;101342.88;5035231;28;46280;-74
2022/11/25 07:43:37;;;;;;;;;2.00;0.33;;;;;21.31;46.72;101378.97;5034970;28;45395;-76
2022/11/25 07:46:11;;;;;;;;;1.33;1.33;;;;;21.43;47.00;101406.78;5034686;28;45403;-76
2022/11/25 07:48:37;;;;;;;;;0.67;0.67;;;;;21.44;46.69;101402.31;5034787;28;45470;-76
2022/11/25 07:51:02;;;;;;;;;1.33;1.33;;;;;21.39;46.62;101403.59;5034693;28;46778;-75
2022/11/25 07:53:28;;;;;;;;;1.00;1.00;;;;;;;;5033745;28;45576;-75
2022/11/25 07:55:53;;;;;;;;;2.00;0.67;;;;;21.44;47.00;101419.03;5034949;28;45528;-77
2022/11/25 07:58:18;;;;;;;;;1.67;1.67;;;;;21.35;46.87;101404.09;5036386;28;45507;-76
2022/11/25 08:00:43;;;;;;;;;0.00;0.00;;;;;21.46;46.96;101424.16;5036108;28;46433;-76
2022/11/25 08:03:14;;;;;;;;;1.00;1.00;;;;;21.47;46.44;101439.03;5036317;28;45462;-76
2022/11/25 08:05:39;;;;;;;;;2.00;0.67;;;;;21.47;46.83;101450.44;5036204;28;45366;-76
2022/11/25 08:08:05;;;;;;;;;0.67;0.67;;;;;21.42;46.70;101441.38;5035687;28;45354;-75
2022/11/25 08:10:30;;;;;;;;;2.33;1.33;;;;;21.49;46.47;101458.25;5036372;28;46166;-75
2022/11/25 08:12:55;;;;;;;;;0.00;0.00;;;;;21.49;46.40;101461.69;5036127;28;45311;-75
2022/11/25 08:15:21;;;;;;;;;0.67;0.67;;;;;21.44;46.36;101453.44;5036268;28;45365;-77
2022/11/25 08:17:46;;;;;;;;;0.33;0.33;;;;;21.50;46.31;101466.03;5036494;28;45383;-76
2022/11/25 08:20:12;;;;;;;;;1.33;1.33;;;;;21.44;46.31;101458.75;5031677;28;46658;-75
2022/11/25 08:22:37;;;;;;;;;0.00;0.00;;;;;21.52;46.47;101469.34;5035163;28;45400;-76
2022/11/25 08:25:02;;;;;;;;;1.33;0.00;;;;;21.53;46.40;101475.47;5034766;28;45454;-77
2022/11/25 08:27:28;;;;;;;;;1.00;0.33;;;;;21.53;46.53;101480.75;5034688;28;45322;-75
2022/11/25 08:29:53;;;;;;;;;1.00;1.00;;;;;21.44;46.37;101471.16;5034703;28;47021;-77
2022/11/25 08:32:19;;;;;;;;;0.67;0.67;;;;;21.12;46.29;101431.16;5034966;28;45426;-77
2022/11/25 08:34:44;;;;;;;;;0.67;0.67;;;;;21.43;46.78;101486.19;5036009;28;45360;-77
2022/11/25 08:37:09;;;;;;;;;0.00;0.00;;;;;21.47;46.29;101492.81;5036113;28;45422;-77
2022/11/25 08:39:35;;;;;;;;;1.00;1.00;;;;;21.49;46.10;101490.03;5036308;28;46066;-77
2022/11/25 08:42:03;;;;;;;;;2.33;2.33;;;;;21.51;46.13;101491.53;5036378;28;45409;-77
2022/11/25 08:44:28;;;;;;;;;0.67;0.67;;;;;21.52;46.44;101500.28;5036899;28;45418;-77
2022/11/25 08:46:54;;;;;;;;;2.33;0.67;;;;;21.52;46.23;101516.16;5036087;28;45511;-77
2022/11/25 08:49:20;;;;;;;;;3.00;1.67;;;;;21.49;46.37;101517.31;5036506;28;46464;-77
2022/11/25 08:51:46;;;;;;;;;0.33;0.33;;;;;21.49;46.41;101511.19;5036512;28;45430;-76
2022/11/25 08:54:13;;;;;;;;;0.33;0.33;;;;;21.55;46.36;101523.78;5036269;28;45363;-77
2022/11/25 08:56:38;;;;;;;;;0.67;0.67;;;;;21.54;46.33;101530.09;5036080;28;45562;-78
2022/11/25 08:59:04;;;;;;;;;3.67;2.00;;;;;21.42;45.89;101503.06;5036035;28;46555;-77
2022/11/25 09:01:29;;;;;;;;;0.67;0.67;;;;;21.56;46.50;101533.41;5035832;28;45356;-78
2022/11/25 09:03:55;;;;;;;;;2.00;0.67;;;;;21.56;46.08;101535.22;5036205;28;45386;-77
2022/11/25 09:06:22;;;;;;;;;1.67;0.67;;;;;21.59;46.42;101545.47;5036390;28;45285;-77
2022/11/25 09:08:48;;;;;;;;;2.33;2.00;;;;;21.46;46.63;101530.88;5035585;28;47217;-77
2022/11/25 09:11:13;;;;;;;;;1.67;0.00;;;;;21.51;45.95;101530.41;5036091;28;45328;-76
2022/11/25 09:13:39;;;;;;;;;1.67;0.67;;;;;21.59;46.38;101548.97;5036254;28;45252;-77
2022/11/25 09:16:05;;;;;;;;;0.67;0.67;;;;;21.58;46.40;101549.94;5036244;28;45365;-77
2022/11/25 09:18:31;;;;;;;;;0.67;0.67;;;;;21.57;46.11;101572.09;5017802;28;46322;-77
2022/11/25 09:20:57;;;;;;;;;1.00;0.67;;;;;21.56;46.05;101581.06;5035753;28;45323;-77
2022/11/25 09:23:23;;;;;;;;;1.00;1.00;;;;;21.49;46.33;101564.97;5017818;28;45355;-77
2022/11/25 09:25:54;;;;;;;;;0.00;0.00;;;;;21.56;46.79;101578.41;5035791;28;45497;-76
2022/11/25 09:28:21;;;;;;;;;1.00;1.00;;;;;21.54;46.63;101575.09;5035523;28;46294;-77
2022/11/25 09:30:47;;;;;;;;;1.00;1.00;;;;;21.55;46.59;101589.16;5034750;28;45414;-76
2022/11/25 09:33:12;;;;;;;;;2.00;0.00;;;;;21.43;46.64;101560.31;5035909;28;45378;-77
2022/11/25 09:35:37;;;;;;;;;1.00;1.00;;;;;21.56;46.33;101590.81;5035870;28;45403;-76
2022/11/25 09:38:03;;;;;;;;;1.00;1.00;;;;;21.48;46.66;101581.84;5035271;28;48005;-77
2022/11/25 09:40:46;;;;;;;;;1.00;0.33;;;;;21.55;46.14;101599.72;5035722;28;45485;-77
2022/11/25 09:47:07;;;;;;;;;2.00;2.00;;;;;21.55;46.33;101618.28;5035527;28;45351;-76
2022/11/25 09:49:43;;;;;;;;;1.67;0.33;;;;;21.56;46.12;101625.25;5035244;28;46143;-77
2022/11/25 09:52:23;;;;;;;;;0.33;0.33;;;;;21.57;46.59;101626.91;5035632;28;45496;-77
2022/11/25 09:55:01;;;;;;;;;0.67;0.67;;;;;21.57;46.57;101635.66;5035398;28;45367;-77
2022/11/25 09:57:54;;;;;;;;;1.67;1.67;;;;;21.57;46.06;101651.53;5035292;28;45391;-77
2022/11/25 10:00:20;;;;;;;;;2.00;1.00;;;;;21.55;46.42;101658.81;5034535;28;46397;-77
2022/11/25 10:03:03;;;;;;;;;1.67;1.67;;;;;21.55;46.02;101669.41;5035251;28;45470;-78
2022/11/25 10:05:34;;;;;;;;;1.33;1.33;;;;;21.51;45.92;101666.28;5035343;28;45365;-78
2022/11/25 10:08:08;;;;;;;;;2.33;1.33;;;;;21.52;46.06;101665.25;5035427;28;45326;-77
2022/11/25 10:10:43;;;;;;;;;5.00;1.00;;;;;21.48;46.01;101658.63;5035177;28;45365;-77
2022/11/25 10:13:26;;;;;;;;;4.33;0.67;;;;;21.46;46.53;101668.56;5034903;28;45393;-76
2022/11/25 10:15:56;;;;;;;;;1.67;0.67;;;;;21.44;46.02;101662.59;5034597;28;45467;-77
2022/11/25 10:18:36;;;;;;;;;1.67;1.00;;;;;21.57;46.61;101682.50;5035138;28;45461;-77
2022/11/25 10:21:03;;;;;;;;;1.00;1.00;;;;;21.56;45.92;101680.84;5035120;28;47064;-76
2022/11/25 10:23:34;;;;;;;;;1.33;0.67;;;;;21.46;46.52;101673.84;5034889;28;45468;-76
2022/11/25 10:26:13;;;;;;;;;2.00;1.00;;;;;21.57;46.21;101693.91;5035200;28;45347;-77
2022/11/25 10:28:44;;;;;;;;;0.67;0.67;;;;;21.50;46.00;101674.34;5034381;28;45368;-76
2022/11/25 10:31:16;;;;;;;;;3.00;1.00;;;;;21.58;45.94;101694.75;5034630;28;46142;-77
2022/11/25 10:33:49;;;;;;;;;2.00;2.00;;;;;21.59;46.40;101696.44;5034769;28;45358;-77
2022/11/25 10:36:20;;;;;;;;;1.00;1.00;;;;;21.59;46.18;101697.25;5034709;28;45369;-77
2022/11/25 10:39:25;;;;;;;;;1.00;1.00;;;;;21.60;46.53;101704.19;5034877;28;45373;-76
2022/11/25 10:42:07;;;;;;;;;2.00;2.00;;;;;21.61;46.46;101710.34;4972553;28;47128;-75
2022/11/25 10:44:36;;;;;;;;;3.00;1.67;;;;;21.60;46.25;101720.09;4973136;28;45428;-76
2022/11/25 10:47:32;;;;;;;;;0.00;0.00;;;;;21.60;46.01;101720.09;4973133;28;45320;-75
2022/11/25 10:50:09;;;;;;;;;1.00;1.00;;;;;21.60;46.42;101730.69;4973068;28;45570;-75
2022/11/25 10:52:45;;;;;;;;;1.00;1.00;;;;;21.60;46.43;101733.31;4956449;28;46483;-77
2022/11/25 10:55:17;;;;;;;;;3.67;1.00;;;;;21.61;46.33;101726.22;4954164;28;45453;-77
2022/11/25 10:57:43;;;;;;;;;1.33;1.00;;;;;21.60;45.91;101730.69;4953002;28;45422;-76
2022/11/25 11:00:33;;;;;;;;;0.00;0.00;;;;;21.60;46.58;101738.63;4953413;28;45464;-76
2022/11/25 11:03:12;;;;;;;;;0.67;0.67;;;;;21.58;46.34;101737.97;4953632;28;46044;-76
2022/11/25 11:05:47;;;;;;;;;3.00;1.67;;;;;21.46;46.11;101713.56;4953378;28;45626;-76
2022/11/25 11:08:17;;;;;;;;;1.00;1.00;;;;;21.58;46.32;101740.59;4953144;28;45401;-76
2022/11/25 11:10:42;;;;;;;;;2.33;1.00;;;;;21.47;46.08;101725.78;4953519;28;45319;-77
2022/11/25 11:13:24;;;;;;;;;2.00;2.00;;;;;21.58;46.35;101747.72;4997033;28;45373;-76
2022/11/25 11:15:52;;;;;;;;;1.33;1.33;;;;;21.43;46.05;101721.81;5013593;28;45366;-75
2022/11/25 11:18:23;;;;;;;;;1.00;1.00;;;;;21.57;46.17;101743.41;4994558;28;45232;-77
2022/11/25 11:20:52;;;;;;;;;2.00;1.00;;;;;21.58;46.19;101748.56;4994535;28;45561;-78
2022/11/25 11:23:17;;;;;;;;;0.00;0.00;;;;;21.57;45.86;101752.16;4994480;28;47247;-77
2022/11/25 11:26:01;;;;;;;;;2.00;2.00;;;;;21.26;46.33;101711.09;4994023;28;45344;-77
2022/11/25 11:28:31;;;;;;;;;2.00;0.00;;;;;21.57;46.03;101759.31;4996008;28;45363;-77
2022/11/25 11:31:02;;;;;;;;;3.33;2.00;;;;;21.56;46.10;101761.13;4997916;28;45393;-77
2022/11/25 11:33:51;;;;;;;;;2.00;1.00;;;;;21.57;45.96;101756.66;4997673;28;45331;-76
2022/11/25 11:36:28;;;;;;;;;3.00;2.00;;;;;21.56;46.06;101760.28;4996357;28;46142;-76